sensor_id;sensor_type;location;lat;lon;timestamp;temperature;humidity
18906;DHT22;9585;51.018;4.282;2023-02-27T00:01:59;0.20;99.90
18906;DHT22;9585;51.018;4.282;2023-02-27T00:04:27;0.20;99.90
18906;DHT22;9585;51.018;4.282;2023-02-27T00:06:54;0.30;99.90
18906;DHT22;9585;51.018;4.282;2023-02-27T00:09:23;0.20;99.90
18906;DHT22;9585;51.018;4.282;2023-02-27T00:11:50;0.10;99.90
18906;DHT22;9585;51.018;4.282;2023-02-27T00:14:18;0.10;99.90
18906;DHT22;9585;51.018;4.282;2023-02-27T00:16:45;0.10;99.90
18906;DHT22;9585;51.018;4.282;2023-02-27T00:19:12;0.10;99.90
18906;DHT22;9585;51.018;4.282;2023-02-27T00:21:40;0.20;99.90
18906;DHT22;9585;51.018;4.282;2023-02-27T00:24:09;0.00;99.90
18906;DHT22;9585;51.018;4.282;2023-02-27T00:26:38;0.00;99.90
18906;DHT22;9585;51.018;4.282;2023-02-27T00:29:06;0.10;99.90
18906;DHT22;9585;51.018;4.282;2023-02-27T00:31:33;0.10;99.90
18906;DHT22;9585;51.018;4.282;2023-02-27T00:34:01;0.10;99.90
18906;DHT22;9585;51.018;4.282;2023-02-27T00:36:29;0.10;99.90
18906;DHT22;9585;51.018;4.282;2023-02-27T00:38:56;0.10;99.90
18906;DHT22;9585;51.018;4.282;2023-02-27T00:41:23;0.10;99.90
18906;DHT22;9585;51.018;4.282;2023-02-27T00:43:52;0.20;99.90
18906;DHT22;9585;51.018;4.282;2023-02-27T00:46:19;0.20;99.90
18906;DHT22;9585;51.018;4.282;2023-02-27T00:48:47;0.20;99.90
18906;DHT22;9585;51.018;4.282;2023-02-27T00:51:14;0.10;99.90
18906;DHT22;9585;51.018;4.282;2023-02-27T00:53:44;0.10;99.90
18906;DHT22;9585;51.018;4.282;2023-02-27T00:56:12;0.00;99.90
18906;DHT22;9585;51.018;4.282;2023-02-27T00:58:39;0.00;99.90
18906;DHT22;9585;51.018;4.282;2023-02-27T01:01:08;-0.20;99.90
18906;DHT22;9585;51.018;4.282;2023-02-27T01:03:35;-0.30;99.90
18906;DHT22;9585;51.018;4.282;2023-02-27T01:06:02;-0.30;99.90
18906;DHT22;9585;51.018;4.282;2023-02-27T01:08:30;-0.30;99.90
18906;DHT22;9585;51.018;4.282;2023-02-27T01:10:57;-0.30;99.90
18906;DHT22;9585;51.018;4.282;2023-02-27T01:13:25;-0.20;99.90
18906;DHT22;9585;51.018;4.282;2023-02-27T01:15:52;-0.20;99.90
18906;DHT22;9585;51.018;4.282;2023-02-27T01:18:21;-0.30;99.90
18906;DHT22;9585;51.018;4.282;2023-02-27T01:20:51;-0.30;99.90
18906;DHT22;9585;51.018;4.282;2023-02-27T01:23:19;-0.30;99.90
18906;DHT22;9585;51.018;4.282;2023-02-27T01:25:46;-0.40;99.90
18906;DHT22;9585;51.018;4.282;2023-02-27T01:28:14;-0.40;99.90
18906;DHT22;9585;51.018;4.282;2023-02-27T01:30:42;-0.30;99.90
18906;DHT22;9585;51.018;4.282;2023-02-27T01:33:09;-0.30;99.90
18906;DHT22;9585;51.018;4.282;2023-02-27T01:35:38;-0.20;99.90
18906;DHT22;9585;51.018;4.282;2023-02-27T01:38:05;-0.40;99.90
18906;DHT22;9585;51.018;4.282;2023-02-27T01:40:34;-0.40;99.90
18906;DHT22;9585;51.018;4.282;2023-02-27T01:43:03;-0.40;99.90
18906;DHT22;9585;51.018;4.282;2023-02-27T01:45:33;-0.40;99.90
18906;DHT22;9585;51.018;4.282;2023-02-27T01:48:09;-0.50;99.90
18906;DHT22;9585;51.018;4.282;2023-02-27T01:50:43;-0.40;99.90
18906;DHT22;9585;51.018;4.282;2023-02-27T01:53:12;-0.30;99.90
18906;DHT22;9585;51.018;4.282;2023-02-27T01:55:40;-0.30;99.90
18906;DHT22;9585;51.018;4.282;2023-02-27T01:58:10;-0.50;99.90
18906;DHT22;9585;51.018;4.282;2023-02-27T02:00:38;-0.50;99.90
18906;DHT22;9585;51.018;4.282;2023-02-27T02:03:13;-0.50;99.90
18906;DHT22;9585;51.018;4.282;2023-02-27T02:05:43;-0.60;99.90
18906;DHT22;9585;51.018;4.282;2023-02-27T02:08:14;-0.70;99.90
18906;DHT22;9585;51.018;4.282;2023-02-27T02:10:43;-0.70;99.90
18906;DHT22;9585;51.018;4.282;2023-02-27T02:13:12;-0.80;99.90
18906;DHT22;9585;51.018;4.282;2023-02-27T02:15:44;-0.80;99.90
18906;DHT22;9585;51.018;4.282;2023-02-27T02:18:20;-0.80;99.90
18906;DHT22;9585;51.018;4.282;2023-02-27T02:27:23;-0.80;99.90
18906;DHT22;9585;51.018;4.282;2023-02-27T02:30:30;-0.80;99.90
18906;DHT22;9585;51.018;4.282;2023-02-27T02:36:43;-0.90;99.90
18906;DHT22;9585;51.018;4.282;2023-02-27T02:42:15;-0.90;99.90
18906;DHT22;9585;51.018;4.282;2023-02-27T02:44:50;-1.00;99.90
18906;DHT22;9585;51.018;4.282;2023-02-27T02:47:29;-1.00;99.90
18906;DHT22;9585;51.018;4.282;2023-02-27T02:50:04;-0.90;99.90
18906;DHT22;9585;51.018;4.282;2023-02-27T02:52:41;-0.80;99.90
18906;DHT22;9585;51.018;4.282;2023-02-27T02:55:15;-0.90;99.90
18906;DHT22;9585;51.018;4.282;2023-02-27T02:57:50;-1.00;99.90
18906;DHT22;9585;51.018;4.282;2023-02-27T03:00:21;-1.10;99.90
18906;DHT22;9585;51.018;4.282;2023-02-27T03:02:53;-1.20;99.90
18906;DHT22;9585;51.018;4.282;2023-02-27T03:05:25;-1.20;99.90
18906;DHT22;9585;51.018;4.282;2023-02-27T03:07:57;-1.20;99.90
18906;DHT22;9585;51.018;4.282;2023-02-27T03:10:31;-1.20;99.90
18906;DHT22;9585;51.018;4.282;2023-02-27T03:13:04;-1.10;99.90
18906;DHT22;9585;51.018;4.282;2023-02-27T03:15:37;-1.20;99.90
18906;DHT22;9585;51.018;4.282;2023-02-27T03:18:09;-1.10;99.90
18906;DHT22;9585;51.018;4.282;2023-02-27T03:20:47;-1.00;99.90
18906;DHT22;9585;51.018;4.282;2023-02-27T03:23:22;-1.00;99.90
18906;DHT22;9585;51.018;4.282;2023-02-27T03:25:53;-1.00;99.90
18906;DHT22;9585;51.018;4.282;2023-02-27T03:28:25;-1.00;99.90
18906;DHT22;9585;51.018;4.282;2023-02-27T03:30:56;-1.00;99.90
18906;DHT22;9585;51.018;4.282;2023-02-27T03:33:47;-1.10;99.90
18906;DHT22;9585;51.018;4.282;2023-02-27T03:36:23;-1.10;99.90
18906;DHT22;9585;51.018;4.282;2023-02-27T03:38:59;-1.10;99.90
18906;DHT22;9585;51.018;4.282;2023-02-27T03:41:34;-1.10;99.90
18906;DHT22;9585;51.018;4.282;2023-02-27T03:44:06;-1.10;99.90
18906;DHT22;9585;51.018;4.282;2023-02-27T03:46:36;-1.10;99.90
18906;DHT22;9585;51.018;4.282;2023-02-27T03:49:04;-1.10;99.90
18906;DHT22;9585;51.018;4.282;2023-02-27T03:51:33;-1.20;99.90
18906;DHT22;9585;51.018;4.282;2023-02-27T03:54:04;-1.20;99.90
18906;DHT22;9585;51.018;4.282;2023-02-27T03:56:39;-1.20;99.90
18906;DHT22;9585;51.018;4.282;2023-02-27T03:59:07;-1.30;99.90
18906;DHT22;9585;51.018;4.282;2023-02-27T04:01:35;-1.30;99.90
18906;DHT22;9585;51.018;4.282;2023-02-27T04:04:05;-1.30;99.90
18906;DHT22;9585;51.018;4.282;2023-02-27T04:06:35;-1.30;99.90
18906;DHT22;9585;51.018;4.282;2023-02-27T04:09:34;-1.40;99.90
18906;DHT22;9585;51.018;4.282;2023-02-27T04:12:39;-1.30;99.90
18906;DHT22;9585;51.018;4.282;2023-02-27T04:15:17;-1.30;99.90
18906;DHT22;9585;51.018;4.282;2023-02-27T04:17:54;-1.50;99.90
18906;DHT22;9585;51.018;4.282;2023-02-27T04:20:33;-1.50;99.90
18906;DHT22;9585;51.018;4.282;2023-02-27T04:23:03;-1.50;99.90
18906;DHT22;9585;51.018;4.282;2023-02-27T04:25:40;-1.50;99.90
18906;DHT22;9585;51.018;4.282;2023-02-27T04:28:15;-1.60;99.90
18906;DHT22;9585;51.018;4.282;2023-02-27T04:30:59;-1.60;99.90
18906;DHT22;9585;51.018;4.282;2023-02-27T04:33:35;-1.60;99.90
18906;DHT22;9585;51.018;4.282;2023-02-27T04:36:08;-1.60;99.90
18906;DHT22;9585;51.018;4.282;2023-02-27T04:38:40;-1.70;99.90
18906;DHT22;9585;51.018;4.282;2023-02-27T04:41:13;-1.60;99.90
18906;DHT22;9585;51.018;4.282;2023-02-27T04:43:45;-1.60;99.90
18906;DHT22;9585;51.018;4.282;2023-02-27T04:46:16;-1.50;99.90
18906;DHT22;9585;51.018;4.282;2023-02-27T04:48:48;-1.50;99.90
18906;DHT22;9585;51.018;4.282;2023-02-27T04:51:22;-1.50;99.90
18906;DHT22;9585;51.018;4.282;2023-02-27T04:53:55;-1.50;99.90
18906;DHT22;9585;51.018;4.282;2023-02-27T04:56:26;-1.60;99.90
18906;DHT22;9585;51.018;4.282;2023-02-27T04:58:58;-1.70;99.90
18906;DHT22;9585;51.018;4.282;2023-02-27T05:01:33;-1.80;99.90
18906;DHT22;9585;51.018;4.282;2023-02-27T05:04:02;-1.80;99.90
18906;DHT22;9585;51.018;4.282;2023-02-27T05:06:34;-1.90;99.90
18906;DHT22;9585;51.018;4.282;2023-02-27T05:09:08;-1.90;99.90
18906;DHT22;9585;51.018;4.282;2023-02-27T05:11:43;-1.90;99.90
18906;DHT22;9585;51.018;4.282;2023-02-27T05:14:17;-2.00;99.90
18906;DHT22;9585;51.018;4.282;2023-02-27T05:16:50;-2.10;99.90
18906;DHT22;9585;51.018;4.282;2023-02-27T05:19:19;-2.00;99.90
18906;DHT22;9585;51.018;4.282;2023-02-27T05:21:52;-2.00;99.90
18906;DHT22;9585;51.018;4.282;2023-02-27T05:24:31;-2.20;99.90
18906;DHT22;9585;51.018;4.282;2023-02-27T05:27:15;-2.20;99.90
18906;DHT22;9585;51.018;4.282;2023-02-27T05:29:48;-2.30;99.90
18906;DHT22;9585;51.018;4.282;2023-02-27T05:32:25;-2.20;99.90
18906;DHT22;9585;51.018;4.282;2023-02-27T05:34:56;-2.10;99.90
18906;DHT22;9585;51.018;4.282;2023-02-27T05:37:28;-2.00;99.90
18906;DHT22;9585;51.018;4.282;2023-02-27T05:39:58;-2.00;99.90
18906;DHT22;9585;51.018;4.282;2023-02-27T05:42:35;-2.00;99.90
18906;DHT22;9585;51.018;4.282;2023-02-27T05:45:08;-2.10;99.90
18906;DHT22;9585;51.018;4.282;2023-02-27T05:47:39;-2.00;99.90
18906;DHT22;9585;51.018;4.282;2023-02-27T05:50:10;-1.80;99.90
18906;DHT22;9585;51.018;4.282;2023-02-27T05:52:39;-1.80;99.90
18906;DHT22;9585;51.018;4.282;2023-02-27T05:55:11;-1.90;99.90
18906;DHT22;9585;51.018;4.282;2023-02-27T05:57:44;-2.00;99.90
18906;DHT22;9585;51.018;4.282;2023-02-27T06:00:18;-2.00;99.90
18906;DHT22;9585;51.018;4.282;2023-02-27T06:02:46;-2.10;99.90
18906;DHT22;9585;51.018;4.282;2023-02-27T06:05:15;-2.10;99.90
18906;DHT22;9585;51.018;4.282;2023-02-27T06:07:43;-2.10;99.90
18906;DHT22;9585;51.018;4.282;2023-02-27T06:10:13;-2.20;99.90
18906;DHT22;9585;51.018;4.282;2023-02-27T06:12:40;-2.20;99.90
18906;DHT22;9585;51.018;4.282;2023-02-27T06:15:09;-2.20;99.90
18906;DHT22;9585;51.018;4.282;2023-02-27T06:17:38;-2.20;99.90
18906;DHT22;9585;51.018;4.282;2023-02-27T06:20:07;-2.20;99.90
18906;DHT22;9585;51.018;4.282;2023-02-27T06:22:34;-2.20;99.90
18906;DHT22;9585;51.018;4.282;2023-02-27T06:25:02;-2.20;99.90
18906;DHT22;9585;51.018;4.282;2023-02-27T06:27:29;-2.20;99.90
18906;DHT22;9585;51.018;4.282;2023-02-27T06:29:57;-2.10;99.90
18906;DHT22;9585;51.018;4.282;2023-02-27T06:32:24;-2.20;99.90
18906;DHT22;9585;51.018;4.282;2023-02-27T06:34:53;-2.20;99.90
18906;DHT22;9585;51.018;4.282;2023-02-27T06:37:20;-2.20;99.90
18906;DHT22;9585;51.018;4.282;2023-02-27T06:39:48;-2.20;99.90
18906;DHT22;9585;51.018;4.282;2023-02-27T06:42:16;-2.10;99.90
18906;DHT22;9585;51.018;4.282;2023-02-27T06:44:44;-2.10;99.90
18906;DHT22;9585;51.018;4.282;2023-02-27T06:47:11;-2.00;99.90
18906;DHT22;9585;51.018;4.282;2023-02-27T06:49:38;-2.00;99.90
18906;DHT22;9585;51.018;4.282;2023-02-27T06:52:07;-1.90;99.90
18906;DHT22;9585;51.018;4.282;2023-02-27T06:54:35;-1.80;99.90
18906;DHT22;9585;51.018;4.282;2023-02-27T06:57:02;-1.70;99.90
18906;DHT22;9585;51.018;4.282;2023-02-27T06:59:30;-1.60;99.90
18906;DHT22;9585;51.018;4.282;2023-02-27T07:01:58;-1.40;99.90
18906;DHT22;9585;51.018;4.282;2023-02-27T07:04:25;-1.30;99.90
18906;DHT22;9585;51.018;4.282;2023-02-27T07:06:53;-1.20;99.90
18906;DHT22;9585;51.018;4.282;2023-02-27T07:09:22;-0.90;99.90
18906;DHT22;9585;51.018;4.282;2023-02-27T07:11:49;-0.60;99.90
18906;DHT22;9585;51.018;4.282;2023-02-27T07:14:17;-0.30;99.90
18906;DHT22;9585;51.018;4.282;2023-02-27T07:16:44;-0.20;99.90
18906;DHT22;9585;51.018;4.282;2023-02-27T07:19:15;0.20;99.90
18906;DHT22;9585;51.018;4.282;2023-02-27T07:21:43;0.30;99.90
18906;DHT22;9585;51.018;4.282;2023-02-27T07:24:11;0.60;99.90
18906;DHT22;9585;51.018;4.282;2023-02-27T07:26:40;0.90;99.90
18906;DHT22;9585;51.018;4.282;2023-02-27T07:29:07;1.20;99.90
18906;DHT22;9585;51.018;4.282;2023-02-27T07:31:35;1.70;99.90
18906;DHT22;9585;51.018;4.282;2023-02-27T07:34:02;2.10;99.90
18906;DHT22;9585;51.018;4.282;2023-02-27T07:36:29;2.20;99.90
18906;DHT22;9585;51.018;4.282;2023-02-27T07:38:57;2.40;99.90
18906;DHT22;9585;51.018;4.282;2023-02-27T07:41:24;2.40;99.90
18906;DHT22;9585;51.018;4.282;2023-02-27T07:43:53;2.50;99.90
18906;DHT22;9585;51.018;4.282;2023-02-27T07:46:20;2.50;99.90
18906;DHT22;9585;51.018;4.282;2023-02-27T07:48:51;2.80;99.90
18906;DHT22;9585;51.018;4.282;2023-02-27T07:51:19;3.10;99.90
18906;DHT22;9585;51.018;4.282;2023-02-27T07:53:46;2.80;99.90
18906;DHT22;9585;51.018;4.282;2023-02-27T07:56:13;2.80;99.90
18906;DHT22;9585;51.018;4.282;2023-02-27T07:58:41;3.10;99.90
18906;DHT22;9585;51.018;4.282;2023-02-27T08:01:09;3.50;99.90
18906;DHT22;9585;51.018;4.282;2023-02-27T08:03:37;3.70;99.90
18906;DHT22;9585;51.018;4.282;2023-02-27T08:06:07;3.90;99.90
18906;DHT22;9585;51.018;4.282;2023-02-27T08:08:35;4.20;99.90
18906;DHT22;9585;51.018;4.282;2023-02-27T08:11:02;4.20;99.90
18906;DHT22;9585;51.018;4.282;2023-02-27T08:13:29;4.20;99.90
18906;DHT22;9585;51.018;4.282;2023-02-27T08:15:57;4.30;99.90
18906;DHT22;9585;51.018;4.282;2023-02-27T08:18:26;4.50;99.90
18906;DHT22;9585;51.018;4.282;2023-02-27T08:20:54;4.60;99.90
18906;DHT22;9585;51.018;4.282;2023-02-27T08:23:22;4.50;99.90
18906;DHT22;9585;51.018;4.282;2023-02-27T08:25:52;3.90;99.90
18906;DHT22;9585;51.018;4.282;2023-02-27T08:28:19;4.10;99.90
18906;DHT22;9585;51.018;4.282;2023-02-27T08:30:47;3.70;99.90
18906;DHT22;9585;51.018;4.282;2023-02-27T08:33:15;3.80;99.90
18906;DHT22;9585;51.018;4.282;2023-02-27T08:35:44;3.90;99.90
18906;DHT22;9585;51.018;4.282;2023-02-27T08:38:11;3.50;99.90
18906;DHT22;9585;51.018;4.282;2023-02-27T08:40:39;3.30;99.90
18906;DHT22;9585;51.018;4.282;2023-02-27T08:43:06;3.00;99.90
18906;DHT22;9585;51.018;4.282;2023-02-27T08:45:33;2.80;99.90
18906;DHT22;9585;51.018;4.282;2023-02-27T08:48:00;2.50;99.90
18906;DHT22;9585;51.018;4.282;2023-02-27T08:50:28;2.60;99.90
18906;DHT22;9585;51.018;4.282;2023-02-27T08:52:56;2.70;99.90
18906;DHT22;9585;51.018;4.282;2023-02-27T08:55:24;2.60;99.90
18906;DHT22;9585;51.018;4.282;2023-02-27T08:57:51;2.40;99.90
18906;DHT22;9585;51.018;4.282;2023-02-27T09:00:19;2.40;99.90
18906;DHT22;9585;51.018;4.282;2023-02-27T09:02:47;2.50;99.90
18906;DHT22;9585;51.018;4.282;2023-02-27T09:05:14;2.50;99.90
18906;DHT22;9585;51.018;4.282;2023-02-27T09:07:42;2.50;99.90
18906;DHT22;9585;51.018;4.282;2023-02-27T09:10:11;2.20;99.90
18906;DHT22;9585;51.018;4.282;2023-02-27T09:12:39;2.40;99.90
18906;DHT22;9585;51.018;4.282;2023-02-27T09:15:07;2.50;99.90
18906;DHT22;9585;51.018;4.282;2023-02-27T09:17:35;2.60;99.90
18906;DHT22;9585;51.018;4.282;2023-02-27T09:20:03;2.60;99.90
18906;DHT22;9585;51.018;4.282;2023-02-27T09:22:35;2.80;99.90
18906;DHT22;9585;51.018;4.282;2023-02-27T09:25:03;3.00;99.90
18906;DHT22;9585;51.018;4.282;2023-02-27T09:27:31;3.10;99.90
18906;DHT22;9585;51.018;4.282;2023-02-27T09:29:59;3.20;99.90
18906;DHT22;9585;51.018;4.282;2023-02-27T09:32:26;3.30;99.90
18906;DHT22;9585;51.018;4.282;2023-02-27T09:34:54;3.20;99.90
18906;DHT22;9585;51.018;4.282;2023-02-27T09:37:23;3.10;99.90
18906;DHT22;9585;51.018;4.282;2023-02-27T09:39:50;3.20;99.90
18906;DHT22;9585;51.018;4.282;2023-02-27T09:42:19;3.40;99.90
18906;DHT22;9585;51.018;4.282;2023-02-27T09:44:51;3.50;99.90
18906;DHT22;9585;51.018;4.282;2023-02-27T09:47:23;3.50;99.90
18906;DHT22;9585;51.018;4.282;2023-02-27T09:49:59;3.70;99.90
18906;DHT22;9585;51.018;4.282;2023-02-27T09:52:27;3.80;99.90
18906;DHT22;9585;51.018;4.282;2023-02-27T09:54:55;3.90;99.90
18906;DHT22;9585;51.018;4.282;2023-02-27T09:57:40;3.90;99.90
18906;DHT22;9585;51.018;4.282;2023-02-27T10:00:26;3.70;99.90
18906;DHT22;9585;51.018;4.282;2023-02-27T10:03:03;3.90;99.90
18906;DHT22;9585;51.018;4.282;2023-02-27T10:05:40;4.00;99.90
18906;DHT22;9585;51.018;4.282;2023-02-27T10:08:15;4.10;99.90
18906;DHT22;9585;51.018;4.282;2023-02-27T10:10:48;4.20;99.90
18906;DHT22;9585;51.018;4.282;2023-02-27T10:13:43;3.90;99.90
18906;DHT22;9585;51.018;4.282;2023-02-27T10:16:16;4.00;99.90
18906;DHT22;9585;51.018;4.282;2023-02-27T10:18:50;3.80;99.90
18906;DHT22;9585;51.018;4.282;2023-02-27T10:21:22;4.00;99.90
18906;DHT22;9585;51.018;4.282;2023-02-27T10:23:55;4.20;99.90
18906;DHT22;9585;51.018;4.282;2023-02-27T10:26:26;4.10;99.90
18906;DHT22;9585;51.018;4.282;2023-02-27T10:28:55;4.00;99.90
18906;DHT22;9585;51.018;4.282;2023-02-27T10:31:27;4.30;99.90
18906;DHT22;9585;51.018;4.282;2023-02-27T10:33:56;4.30;99.90
18906;DHT22;9585;51.018;4.282;2023-02-27T10:36:23;4.50;99.90
18906;DHT22;9585;51.018;4.282;2023-02-27T10:38:55;4.50;99.90
18906;DHT22;9585;51.018;4.282;2023-02-27T10:41:25;4.20;99.90
18906;DHT22;9585;51.018;4.282;2023-02-27T10:43:56;4.20;99.90
18906;DHT22;9585;51.018;4.282;2023-02-27T10:46:27;4.20;99.90
18906;DHT22;9585;51.018;4.282;2023-02-27T10:48:57;4.30;99.90
18906;DHT22;9585;51.018;4.282;2023-02-27T10:51:27;4.50;99.90
18906;DHT22;9585;51.018;4.282;2023-02-27T10:54:14;4.60;99.90
18906;DHT22;9585;51.018;4.282;2023-02-27T10:56:44;4.60;99.90
18906;DHT22;9585;51.018;4.282;2023-02-27T10:59:18;4.80;99.90
18906;DHT22;9585;51.018;4.282;2023-02-27T11:01:50;4.90;99.90
18906;DHT22;9585;51.018;4.282;2023-02-27T11:04:27;4.90;99.90
18906;DHT22;9585;51.018;4.282;2023-02-27T11:06:56;4.60;99.90
18906;DHT22;9585;51.018;4.282;2023-02-27T11:09:26;4.70;99.90
18906;DHT22;9585;51.018;4.282;2023-02-27T11:12:08;4.60;99.90
18906;DHT22;9585;51.018;4.282;2023-02-27T11:14:48;4.80;99.90
18906;DHT22;9585;51.018;4.282;2023-02-27T11:17:23;4.40;99.90
18906;DHT22;9585;51.018;4.282;2023-02-27T11:19:51;4.50;99.90
18906;DHT22;9585;51.018;4.282;2023-02-27T11:22:20;4.80;99.90
18906;DHT22;9585;51.018;4.282;2023-02-27T11:24:49;5.00;99.90
18906;DHT22;9585;51.018;4.282;2023-02-27T11:27:20;5.20;99.90
18906;DHT22;9585;51.018;4.282;2023-02-27T11:29:58;5.20;99.90
18906;DHT22;9585;51.018;4.282;2023-02-27T11:32:34;5.00;99.90
18906;DHT22;9585;51.018;4.282;2023-02-27T11:35:02;4.80;99.90
18906;DHT22;9585;51.018;4.282;2023-02-27T11:37:33;4.80;99.90
18906;DHT22;9585;51.018;4.282;2023-02-27T11:40:13;5.10;99.90
18906;DHT22;9585;51.018;4.282;2023-02-27T11:42:44;5.50;99.90
18906;DHT22;9585;51.018;4.282;2023-02-27T11:45:26;5.60;99.90
18906;DHT22;9585;51.018;4.282;2023-02-27T11:47:59;5.40;99.90
18906;DHT22;9585;51.018;4.282;2023-02-27T11:50:42;4.90;99.90
18906;DHT22;9585;51.018;4.282;2023-02-27T11:53:24;4.60;99.90
18906;DHT22;9585;51.018;4.282;2023-02-27T11:55:57;4.40;99.90
18906;DHT22;9585;51.018;4.282;2023-02-27T11:58:28;4.60;99.90
18906;DHT22;9585;51.018;4.282;2023-02-27T12:01:01;5.00;99.90
18906;DHT22;9585;51.018;4.282;2023-02-27T12:03:37;5.10;99.90
18906;DHT22;9585;51.018;4.282;2023-02-27T12:06:14;5.40;99.90
18906;DHT22;9585;51.018;4.282;2023-02-27T12:08:48;5.70;99.90
18906;DHT22;9585;51.018;4.282;2023-02-27T12:11:22;5.70;99.90
18906;DHT22;9585;51.018;4.282;2023-02-27T12:13:57;5.50;99.90
18906;DHT22;9585;51.018;4.282;2023-02-27T12:16:30;5.30;99.90
18906;DHT22;9585;51.018;4.282;2023-02-27T12:19:05;5.00;99.90
18906;DHT22;9585;51.018;4.282;2023-02-27T12:21:39;4.80;99.90
18906;DHT22;9585;51.018;4.282;2023-02-27T12:24:15;4.70;99.90
18906;DHT22;9585;51.018;4.282;2023-02-27T12:26:46;5.00;99.90
18906;DHT22;9585;51.018;4.282;2023-02-27T12:29:20;5.00;99.90
18906;DHT22;9585;51.018;4.282;2023-02-27T12:31:53;5.20;99.90
18906;DHT22;9585;51.018;4.282;2023-02-27T12:34:26;5.00;99.90
18906;DHT22;9585;51.018;4.282;2023-02-27T12:36:59;4.90;99.90
18906;DHT22;9585;51.018;4.282;2023-02-27T12:39:27;4.90;99.90
18906;DHT22;9585;51.018;4.282;2023-02-27T12:42:18;4.90;99.90
18906;DHT22;9585;51.018;4.282;2023-02-27T12:44:58;4.60;99.90
18906;DHT22;9585;51.018;4.282;2023-02-27T12:47:35;4.40;99.90
18906;DHT22;9585;51.018;4.282;2023-02-27T12:50:15;4.50;99.90
18906;DHT22;9585;51.018;4.282;2023-02-27T12:52:54;4.30;99.90
18906;DHT22;9585;51.018;4.282;2023-02-27T12:55:26;4.30;99.90
18906;DHT22;9585;51.018;4.282;2023-02-27T12:58:13;4.30;99.90
18906;DHT22;9585;51.018;4.282;2023-02-27T13:00:45;4.00;99.90
18906;DHT22;9585;51.018;4.282;2023-02-27T13:03:17;4.20;99.90
18906;DHT22;9585;51.018;4.282;2023-02-27T13:05:53;4.40;99.90
18906;DHT22;9585;51.018;4.282;2023-02-27T13:08:47;4.60;99.90
18906;DHT22;9585;51.018;4.282;2023-02-27T13:11:24;5.00;99.90
18906;DHT22;9585;51.018;4.282;2023-02-27T13:13:59;5.40;99.90
18906;DHT22;9585;51.018;4.282;2023-02-27T13:16:31;5.40;99.90
18906;DHT22;9585;51.018;4.282;2023-02-27T13:19:04;5.30;99.90
18906;DHT22;9585;51.018;4.282;2023-02-27T13:21:37;5.20;99.90
18906;DHT22;9585;51.018;4.282;2023-02-27T13:24:21;5.30;99.90
18906;DHT22;9585;51.018;4.282;2023-02-27T13:26:54;4.90;99.90
18906;DHT22;9585;51.018;4.282;2023-02-27T13:29:34;5.10;99.90
18906;DHT22;9585;51.018;4.282;2023-02-27T13:32:11;4.90;99.90
18906;DHT22;9585;51.018;4.282;2023-02-27T13:34:44;4.80;99.90
18906;DHT22;9585;51.018;4.282;2023-02-27T13:37:14;5.00;99.90
18906;DHT22;9585;51.018;4.282;2023-02-27T13:39:53;4.90;99.90
18906;DHT22;9585;51.018;4.282;2023-02-27T13:45:47;5.00;99.90
18906;DHT22;9585;51.018;4.282;2023-02-27T13:48:43;4.80;99.90
18906;DHT22;9585;51.018;4.282;2023-02-27T13:51:39;4.70;99.90
18906;DHT22;9585;51.018;4.282;2023-02-27T13:54:18;4.90;99.90
18906;DHT22;9585;51.018;4.282;2023-02-27T13:56:48;5.10;99.90
18906;DHT22;9585;51.018;4.282;2023-02-27T13:59:20;4.80;99.90
18906;DHT22;9585;51.018;4.282;2023-02-27T14:01:51;4.80;99.90
18906;DHT22;9585;51.018;4.282;2023-02-27T14:04:20;4.80;99.90
18906;DHT22;9585;51.018;4.282;2023-02-27T14:06:49;4.70;99.90
18906;DHT22;9585;51.018;4.282;2023-02-27T14:09:20;4.50;99.90
18906;DHT22;9585;51.018;4.282;2023-02-27T14:11:54;4.40;99.90
18906;DHT22;9585;51.018;4.282;2023-02-27T14:14:40;4.50;99.90
18906;DHT22;9585;51.018;4.282;2023-02-27T14:17:11;4.60;99.90
18906;DHT22;9585;51.018;4.282;2023-02-27T14:19:53;4.60;99.90
18906;DHT22;9585;51.018;4.282;2023-02-27T14:25:38;5.70;99.90
18906;DHT22;9585;51.018;4.282;2023-02-27T14:28:17;5.80;99.90
18906;DHT22;9585;51.018;4.282;2023-02-27T14:30:52;5.90;99.90
18906;DHT22;9585;51.018;4.282;2023-02-27T14:33:22;5.70;99.90
18906;DHT22;9585;51.018;4.282;2023-02-27T14:35:58;5.60;99.90
18906;DHT22;9585;51.018;4.282;2023-02-27T14:38:27;5.50;99.90
18906;DHT22;9585;51.018;4.282;2023-02-27T14:41:18;5.70;99.90
18906;DHT22;9585;51.018;4.282;2023-02-27T14:43:50;5.80;99.90
18906;DHT22;9585;51.018;4.282;2023-02-27T14:46:26;5.90;99.90
18906;DHT22;9585;51.018;4.282;2023-02-27T14:48:55;6.30;99.90
18906;DHT22;9585;51.018;4.282;2023-02-27T14:51:23;6.30;99.90
18906;DHT22;9585;51.018;4.282;2023-02-27T14:54:04;6.40;99.90
18906;DHT22;9585;51.018;4.282;2023-02-27T14:56:33;5.90;99.90
18906;DHT22;9585;51.018;4.282;2023-02-27T14:59:00;5.80;99.90
18906;DHT22;9585;51.018;4.282;2023-02-27T15:01:33;5.70;99.90
18906;DHT22;9585;51.018;4.282;2023-02-27T15:04:03;5.60;99.90
18906;DHT22;9585;51.018;4.282;2023-02-27T15:06:35;5.60;99.90
18906;DHT22;9585;51.018;4.282;2023-02-27T15:09:02;5.70;99.90
18906;DHT22;9585;51.018;4.282;2023-02-27T15:11:30;5.70;99.90
18906;DHT22;9585;51.018;4.282;2023-02-27T15:14:02;5.70;99.90
18906;DHT22;9585;51.018;4.282;2023-02-27T15:16:34;5.80;99.90
18906;DHT22;9585;51.018;4.282;2023-02-27T15:19:12;5.30;99.90
18906;DHT22;9585;51.018;4.282;2023-02-27T15:21:42;5.20;99.90
18906;DHT22;9585;51.018;4.282;2023-02-27T15:24:21;4.90;99.90
18906;DHT22;9585;51.018;4.282;2023-02-27T15:26:52;4.90;99.90
18906;DHT22;9585;51.018;4.282;2023-02-27T15:29:23;4.90;99.90
18906;DHT22;9585;51.018;4.282;2023-02-27T15:31:52;4.90;99.90
18906;DHT22;9585;51.018;4.282;2023-02-27T15:34:20;4.80;99.90
18906;DHT22;9585;51.018;4.282;2023-02-27T15:36:50;4.90;99.90
18906;DHT22;9585;51.018;4.282;2023-02-27T15:39:20;5.00;99.90
18906;DHT22;9585;51.018;4.282;2023-02-27T15:41:50;5.00;99.90
18906;DHT22;9585;51.018;4.282;2023-02-27T15:44:22;5.20;99.90
18906;DHT22;9585;51.018;4.282;2023-02-27T15:46:50;5.50;99.90
18906;DHT22;9585;51.018;4.282;2023-02-27T15:49:20;5.60;99.90
18906;DHT22;9585;51.018;4.282;2023-02-27T15:51:54;5.40;99.90
18906;DHT22;9585;51.018;4.282;2023-02-27T15:54:24;5.30;99.90
18906;DHT22;9585;51.018;4.282;2023-02-27T15:56:52;5.30;99.90
18906;DHT22;9585;51.018;4.282;2023-02-27T15:59:21;5.30;99.90
18906;DHT22;9585;51.018;4.282;2023-02-27T16:01:48;5.00;99.90
18906;DHT22;9585;51.018;4.282;2023-02-27T16:04:23;4.90;99.90
18906;DHT22;9585;51.018;4.282;2023-02-27T16:06:57;5.00;99.90
18906;DHT22;9585;51.018;4.282;2023-02-27T16:09:29;4.80;99.90
18906;DHT22;9585;51.018;4.282;2023-02-27T16:12:10;4.70;99.90
18906;DHT22;9585;51.018;4.282;2023-02-27T16:14:41;4.60;99.90
18906;DHT22;9585;51.018;4.282;2023-02-27T16:17:23;4.50;99.90
18906;DHT22;9585;51.018;4.282;2023-02-27T16:19:51;4.70;99.90
18906;DHT22;9585;51.018;4.282;2023-02-27T16:22:20;4.70;99.90
18906;DHT22;9585;51.018;4.282;2023-02-27T16:24:48;4.80;99.90
18906;DHT22;9585;51.018;4.282;2023-02-27T16:27:17;4.70;99.90
18906;DHT22;9585;51.018;4.282;2023-02-27T16:29:51;4.60;99.90
18906;DHT22;9585;51.018;4.282;2023-02-27T16:32:22;4.50;99.90
18906;DHT22;9585;51.018;4.282;2023-02-27T16:34:50;4.40;99.90
18906;DHT22;9585;51.018;4.282;2023-02-27T16:37:32;4.30;99.90
18906;DHT22;9585;51.018;4.282;2023-02-27T16:40:01;4.40;99.90
18906;DHT22;9585;51.018;4.282;2023-02-27T16:42:30;4.60;99.90
18906;DHT22;9585;51.018;4.282;2023-02-27T16:44:59;4.50;99.90